Time;durP1;ratioP1;P1;durP2;ratioP2;P2;SDS_P1;SDS_P2;PMS_P1;PMS_P2;Temp;Humidity;BMP_temperature;BMP_pressure;BME280_temperature;BME280_humidity;BME280_pressure;Samples;Min_cycle;Max_cycle;Signal;HPM_P1;HPM_P2
2022/07/08 00:00:36;;;;;;;;;;;16.80;99.90;;;;;;5092239;28;19936;-57
2022/07/08 00:03:03;;;;;;;;;;;16.80;99.90;;;;;;5092035;28;19920;-56
2022/07/08 00:05:31;;;;;;;;;;;16.70;99.90;;;;;;5092616;28;20282;-56
2022/07/08 00:07:59;;;;;;;;;;;16.70;99.90;;;;;;5091848;28;19920;-57
2022/07/08 00:10:26;;;;;;;;;;;16.70;99.90;;;;;;5092029;28;19927;-58
2022/07/08 00:12:54;;;;;;;;;;;16.70;99.90;;;;;;5092100;28;19928;-57
2022/07/08 00:15:21;;;;;;;;;;;16.70;99.90;;;;;;5071446;28;19920;-57
2022/07/08 00:17:49;;;;;;;;;;;16.70;99.90;;;;;;5089810;28;20375;-57
2022/07/08 00:20:16;;;;;;;;;;;16.70;99.90;;;;;;5091829;28;19920;-57
2022/07/08 00:22:44;;;;;;;;;;;16.70;99.90;;;;;;5110265;28;19920;-57
2022/07/08 00:25:11;;;;;;;;;;;16.70;99.90;;;;;;5090635;28;20486;-55
2022/07/08 00:27:39;;;;;;;;;;;16.60;99.90;;;;;;5091731;28;19931;-56
2022/07/08 00:30:06;;;;;;;;;;;16.60;99.90;;;;;;5091899;28;19924;-56
2022/07/08 00:32:35;;;;;;;;;;;16.60;99.90;;;;;;5091667;28;19924;-57
2022/07/08 00:35:02;;;;;;;;;;;16.60;99.90;;;;;;5091781;28;19919;-55
2022/07/08 00:37:30;;;;;;;;;;;16.60;99.90;;;;;;5090996;28;19954;-56
2022/07/08 00:39:58;;;;;;;;;;;16.60;99.90;;;;;;5090085;28;19924;-56
2022/07/08 00:42:25;;;;;;;;;;;16.60;99.90;;;;;;5091009;28;19927;-57
2022/07/08 00:44:52;;;;;;;;;;;16.60;99.90;;;;;;5091208;28;20376;-56
2022/07/08 00:47:20;;;;;;;;;;;16.50;99.90;;;;;;5090135;28;19920;-56
2022/07/08 00:49:49;;;;;;;;;;;16.50;99.90;;;;;;5089604;28;20299;-56
2022/07/08 00:52:17;;;;;;;;;;;16.50;99.90;;;;;;5091839;28;19924;-55
2022/07/08 00:54:45;;;;;;;;;;;16.50;99.90;;;;;;5089877;28;19990;-55
2022/07/08 00:57:13;;;;;;;;;;;16.50;99.90;;;;;;5089897;28;19920;-55
2022/07/08 00:59:42;;;;;;;;;;;16.50;99.90;;;;;;5090842;28;20263;-55
2022/07/08 01:02:10;;;;;;;;;;;16.50;99.90;;;;;;5089543;28;19931;-55
2022/07/08 01:04:37;;;;;;;;;;;16.50;99.90;;;;;;5088033;28;19935;-55
2022/07/08 01:07:05;;;;;;;;;;;16.50;99.90;;;;;;5089467;28;19927;-56
2022/07/08 01:09:33;;;;;;;;;;;16.50;99.90;;;;;;5090884;28;19920;-56
2022/07/08 01:12:01;;;;;;;;;;;16.50;99.90;;;;;;5090958;28;19919;-57
2022/07/08 01:14:28;;;;;;;;;;;16.50;99.90;;;;;;5089188;28;19931;-57
2022/07/08 01:16:56;;;;;;;;;;;16.50;99.90;;;;;;5090818;28;20300;-56
2022/07/08 01:19:23;;;;;;;;;;;16.50;99.90;;;;;;5089272;28;19957;-57
2022/07/08 01:21:50;;;;;;;;;;;16.50;99.90;;;;;;5091300;28;19931;-57
2022/07/08 01:24:18;;;;;;;;;;;16.40;99.90;;;;;;5090516;28;19920;-56
2022/07/08 01:26:45;;;;;;;;;;;16.40;99.90;;;;;;5090638;28;19920;-57
2022/07/08 01:29:14;;;;;;;;;;;16.30;99.90;;;;;;5090386;28;19998;-57
2022/07/08 01:31:41;;;;;;;;;;;16.30;99.90;;;;;;5095277;28;19928;-57
2022/07/08 01:34:09;;;;;;;;;;;16.30;99.90;;;;;;5093500;28;19931;-57
2022/07/08 01:36:36;;;;;;;;;;;16.30;99.90;;;;;;5093777;28;19927;-58
2022/07/08 01:39:04;;;;;;;;;;;16.30;99.90;;;;;;5093601;28;19920;-58
2022/07/08 01:41:31;;;;;;;;;;;16.30;99.90;;;;;;5093560;28;19920;-57
2022/07/08 01:43:59;;;;;;;;;;;16.40;99.90;;;;;;5093433;28;19931;-58
2022/07/08 01:46:26;;;;;;;;;;;16.40;99.90;;;;;;5103316;28;19993;-62
2022/07/08 01:48:54;;;;;;;;;;;16.40;99.90;;;;;;5113952;28;19919;-58
2022/07/08 01:51:21;;;;;;;;;;;16.40;99.90;;;;;;5113917;28;19920;-56
2022/07/08 01:53:49;;;;;;;;;;;16.40;99.90;;;;;;5113801;28;19953;-58
2022/07/08 01:56:16;;;;;;;;;;;16.40;99.90;;;;;;5112375;28;19926;-56
2022/07/08 01:58:44;;;;;;;;;;;16.30;99.90;;;;;;5113154;28;19919;-57
2022/07/08 02:01:11;;;;;;;;;;;16.30;99.90;;;;;;5113212;28;19924;-56
2022/07/08 02:03:38;;;;;;;;;;;16.30;99.90;;;;;;5113247;28;19924;-56
2022/07/08 02:06:06;;;;;;;;;;;16.20;99.90;;;;;;5111995;28;19919;-57
2022/07/08 02:08:33;;;;;;;;;;;16.20;99.90;;;;;;5113540;28;19920;-55
2022/07/08 02:13:47;;;;;;;;;;;16.20;99.90;;;;;;5113020;28;19926;-56
2022/07/08 02:16:14;;;;;;;;;;;16.20;99.90;;;;;;5113390;28;19920;-56
2022/07/08 02:18:42;;;;;;;;;;;16.20;99.90;;;;;;5113347;28;19920;-57
2022/07/08 02:21:09;;;;;;;;;;;16.20;99.90;;;;;;5113235;28;19919;-57
2022/07/08 02:23:37;;;;;;;;;;;16.10;99.90;;;;;;5113483;28;19920;-56
2022/07/08 02:26:04;;;;;;;;;;;16.10;99.90;;;;;;5113232;28;19933;-56
2022/07/08 02:28:32;;;;;;;;;;;16.10;99.90;;;;;;5113245;28;19920;-55
2022/07/08 02:30:59;;;;;;;;;;;16.10;99.90;;;;;;5112868;28;19930;-57
2022/07/08 02:33:27;;;;;;;;;;;16.10;99.90;;;;;;5113161;28;19920;-56
2022/07/08 02:35:54;;;;;;;;;;;16.10;99.90;;;;;;5111962;28;20383;-55
2022/07/08 02:38:22;;;;;;;;;;;16.10;99.90;;;;;;5113052;28;19927;-57
2022/07/08 02:40:49;;;;;;;;;;;16.10;99.90;;;;;;5112858;28;19920;-56
2022/07/08 02:43:17;;;;;;;;;;;16.00;99.90;;;;;;5111717;28;19919;-56
2022/07/08 02:45:44;;;;;;;;;;;16.00;99.90;;;;;;5113253;28;20290;-55
2022/07/08 02:48:12;;;;;;;;;;;15.90;99.90;;;;;;5094643;28;20397;-55
2022/07/08 02:50:39;;;;;;;;;;;15.90;99.90;;;;;;5112761;28;20296;-55
2022/07/08 02:53:07;;;;;;;;;;;15.90;99.90;;;;;;5111428;28;19927;-56
2022/07/08 02:55:34;;;;;;;;;;;15.80;99.90;;;;;;5111551;28;19927;-55
2022/07/08 02:58:02;;;;;;;;;;;15.80;99.90;;;;;;5112552;28;19920;-55
2022/07/08 03:00:29;;;;;;;;;;;15.80;99.90;;;;;;5112661;28;19931;-55
2022/07/08 03:02:56;;;;;;;;;;;15.80;99.90;;;;;;5112612;28;20302;-55
2022/07/08 03:05:24;;;;;;;;;;;15.80;99.90;;;;;;5112699;28;19920;-55
2022/07/08 03:07:51;;;;;;;;;;;15.80;99.90;;;;;;5112533;28;19919;-55
2022/07/08 03:10:19;;;;;;;;;;;15.80;99.90;;;;;;5112759;28;19924;-55
2022/07/08 03:12:46;;;;;;;;;;;15.80;99.90;;;;;;5112266;28;19942;-55
2022/07/08 03:15:14;;;;;;;;;;;15.90;99.90;;;;;;5112206;28;19919;-55
2022/07/08 03:17:41;;;;;;;;;;;15.90;99.90;;;;;;5112019;28;20484;-54
2022/07/08 03:20:09;;;;;;;;;;;15.90;99.90;;;;;;5112416;28;19920;-56
2022/07/08 03:22:36;;;;;;;;;;;15.90;99.90;;;;;;5112381;28;20504;-55
2022/07/08 03:25:04;;;;;;;;;;;15.90;99.90;;;;;;5112297;28;20282;-55
2022/07/08 03:27:31;;;;;;;;;;;15.90;99.90;;;;;;5111412;28;19920;-55
2022/07/08 03:29:58;;;;;;;;;;;15.90;99.90;;;;;;5112351;28;19920;-56
2022/07/08 03:32:26;;;;;;;;;;;15.90;99.90;;;;;;5111062;28;20519;-55
2022/07/08 03:34:54;;;;;;;;;;;15.90;99.90;;;;;;5112280;28;19920;-56
2022/07/08 03:37:21;;;;;;;;;;;15.90;99.90;;;;;;5112421;28;19920;-55
2022/07/08 03:39:50;;;;;;;;;;;15.90;99.90;;;;;;5111261;28;19920;-57
2022/07/08 03:42:18;;;;;;;;;;;15.90;99.90;;;;;;5111842;28;20271;-57
2022/07/08 03:44:46;;;;;;;;;;;15.90;99.90;;;;;;5112115;28;20286;-57
2022/07/08 03:47:13;;;;;;;;;;;15.90;99.90;;;;;;5110858;28;19919;-56
2022/07/08 03:49:41;;;;;;;;;;;15.90;99.90;;;;;;5110967;28;20309;-58
2022/07/08 03:52:08;;;;;;;;;;;15.90;99.90;;;;;;5112162;28;19926;-56
2022/07/08 03:54:36;;;;;;;;;;;15.90;99.90;;;;;;5112209;28;20256;-57
2022/07/08 03:57:04;;;;;;;;;;;15.90;99.90;;;;;;5112135;28;20375;-58
2022/07/08 03:59:31;;;;;;;;;;;15.90;99.90;;;;;;5111840;28;19935;-57
2022/07/08 04:01:59;;;;;;;;;;;15.90;99.90;;;;;;5111735;28;20374;-57
2022/07/08 04:04:26;;;;;;;;;;;15.90;99.90;;;;;;5111953;28;19919;-57
2022/07/08 04:06:53;;;;;;;;;;;15.90;99.90;;;;;;5111961;28;20283;-58
2022/07/08 04:09:21;;;;;;;;;;;15.90;99.90;;;;;;5112184;28;19920;-58
2022/07/08 04:11:48;;;;;;;;;;;15.90;99.90;;;;;;5112130;28;20409;-56
2022/07/08 04:14:15;;;;;;;;;;;15.90;99.90;;;;;;5111892;28;19927;-57
2022/07/08 04:16:43;;;;;;;;;;;15.90;99.90;;;;;;5111199;28;19927;-57
2022/07/08 04:19:10;;;;;;;;;;;15.90;99.90;;;;;;5111926;28;19931;-57
2022/07/08 04:21:38;;;;;;;;;;;15.90;99.90;;;;;;5111866;28;19919;-57
2022/07/08 04:24:05;;;;;;;;;;;15.90;99.90;;;;;;5112003;28;19919;-57
2022/07/08 04:26:33;;;;;;;;;;;15.90;99.90;;;;;;5113356;28;20371;-56
2022/07/08 04:29:00;;;;;;;;;;;15.90;99.90;;;;;;5115388;28;19923;-58
2022/07/08 04:31:28;;;;;;;;;;;15.80;99.90;;;;;;5114284;28;19926;-57
2022/07/08 04:33:55;;;;;;;;;;;15.90;99.90;;;;;;5115486;28;20411;-57
2022/07/08 04:36:23;;;;;;;;;;;15.80;99.90;;;;;;5115372;28;19926;-57
2022/07/08 04:38:50;;;;;;;;;;;15.80;99.90;;;;;;5113995;28;19924;-57
2022/07/08 04:41:18;;;;;;;;;;;15.80;99.90;;;;;;5113980;28;19920;-57
2022/07/08 04:43:45;;;;;;;;;;;15.80;99.90;;;;;;5115110;28;19927;-58
2022/07/08 04:46:12;;;;;;;;;;;15.90;99.90;;;;;;5115166;28;19927;-57
2022/07/08 04:48:40;;;;;;;;;;;15.80;99.90;;;;;;5098895;28;19924;-57
2022/07/08 04:51:08;;;;;;;;;;;15.80;99.90;;;;;;5091329;28;19920;-58
2022/07/08 04:53:36;;;;;;;;;;;15.90;99.90;;;;;;5091151;28;19935;-57
2022/07/08 04:56:03;;;;;;;;;;;15.90;99.90;;;;;;5091404;28;19920;-58
2022/07/08 04:58:31;;;;;;;;;;;15.90;99.90;;;;;;5091233;28;20294;-57
2022/07/08 05:00:59;;;;;;;;;;;16.00;99.90;;;;;;5091158;28;19920;-56
2022/07/08 05:03:26;;;;;;;;;;;16.00;99.90;;;;;;5097763;28;19924;-60
2022/07/08 05:06:01;;;;;;;;;;;16.00;99.90;;;;;;5107325;28;20394;-56
2022/07/08 05:08:29;;;;;;;;;;;16.00;99.90;;;;;;5095447;28;19920;-55
2022/07/08 05:10:57;;;;;;;;;;;16.00;99.90;;;;;;5087639;28;20469;-56
2022/07/08 05:13:24;;;;;;;;;;;16.00;99.90;;;;;;5089390;28;19920;-56
2022/07/08 05:15:52;;;;;;;;;;;16.10;99.90;;;;;;5090098;28;19924;-57
2022/07/08 05:18:20;;;;;;;;;;;16.10;99.90;;;;;;5099095;28;19920;-57
2022/07/08 05:20:47;;;;;;;;;;;16.10;99.90;;;;;;5108497;28;19922;-58
2022/07/08 05:23:15;;;;;;;;;;;16.10;99.90;;;;;;5099301;28;20272;-57
2022/07/08 05:25:42;;;;;;;;;;;16.10;99.90;;;;;;5091506;28;19920;-57
2022/07/08 05:28:10;;;;;;;;;;;16.20;99.90;;;;;;5088689;28;19920;-58
2022/07/08 05:30:37;;;;;;;;;;;16.20;99.90;;;;;;5087429;28;19920;-58
2022/07/08 05:33:04;;;;;;;;;;;16.20;99.90;;;;;;5087714;28;19920;-58
2022/07/08 05:35:32;;;;;;;;;;;16.20;99.90;;;;;;5086950;28;19924;-56
2022/07/08 05:37:59;;;;;;;;;;;16.20;99.90;;;;;;5090174;28;19924;-58
2022/07/08 05:40:27;;;;;;;;;;;16.20;99.90;;;;;;5090034;28;19927;-57
2022/07/08 05:42:54;;;;;;;;;;;16.20;99.90;;;;;;5086682;28;19927;-57
2022/07/08 05:45:22;;;;;;;;;;;16.30;99.90;;;;;;5087165;28;19927;-57
2022/07/08 05:47:50;;;;;;;;;;;16.30;99.90;;;;;;5089555;28;20297;-55
2022/07/08 05:50:17;;;;;;;;;;;16.30;99.90;;;;;;5088841;28;19927;-55
2022/07/08 05:52:44;;;;;;;;;;;16.30;99.90;;;;;;5089896;28;19920;-55
2022/07/08 05:55:12;;;;;;;;;;;16.30;99.90;;;;;;5090025;28;19920;-55
2022/07/08 05:57:39;;;;;;;;;;;16.40;99.90;;;;;;5085358;28;19920;-55
2022/07/08 06:00:07;;;;;;;;;;;16.40;99.90;;;;;;5086955;28;19920;-56
2022/07/08 06:02:41;;;;;;;;;;;16.50;99.90;;;;;;5086987;28;19923;-56
2022/07/08 06:05:08;;;;;;;;;;;16.50;99.90;;;;;;5086986;28;19930;-55
2022/07/08 06:07:36;;;;;;;;;;;16.60;99.90;;;;;;5103601;28;19920;-56
2022/07/08 06:10:04;;;;;;;;;;;16.60;99.90;;;;;;5089365;28;20389;-57
2022/07/08 06:12:31;;;;;;;;;;;16.60;99.90;;;;;;5089132;28;19924;-57
2022/07/08 06:14:59;;;;;;;;;;;16.60;99.90;;;;;;5086209;28;19924;-56
2022/07/08 06:17:26;;;;;;;;;;;16.70;99.90;;;;;;5086769;28;19920;-56
2022/07/08 06:19:53;;;;;;;;;;;16.70;99.90;;;;;;5086458;28;19920;-55
2022/07/08 06:22:21;;;;;;;;;;;16.80;99.90;;;;;;5086201;28;20111;-55
2022/07/08 06:24:49;;;;;;;;;;;16.80;99.90;;;;;;5089507;28;19920;-56
2022/07/08 06:27:16;;;;;;;;;;;16.90;99.90;;;;;;5089267;28;19927;-57
2022/07/08 06:29:43;;;;;;;;;;;17.00;99.90;;;;;;5089079;28;19927;-57
2022/07/08 06:32:11;;;;;;;;;;;17.00;99.90;;;;;;5089171;28;19927;-56
2022/07/08 06:34:39;;;;;;;;;;;17.10;99.90;;;;;;5090249;28;19934;-58
2022/07/08 06:37:06;;;;;;;;;;;17.10;99.90;;;;;;5089107;28;19920;-57
2022/07/08 06:39:34;;;;;;;;;;;17.10;99.90;;;;;;5089628;28;19923;-57
2022/07/08 06:42:01;;;;;;;;;;;17.20;99.90;;;;;;5088171;28;20244;-57
2022/07/08 06:44:34;;;;;;;;;;;17.20;99.90;;;;;;5088415;28;19920;-57
2022/07/08 06:47:01;;;;;;;;;;;17.20;99.90;;;;;;5090225;28;19930;-57
2022/07/08 06:49:29;;;;;;;;;;;17.20;99.90;;;;;;5088999;28;20315;-56
2022/07/08 06:51:56;;;;;;;;;;;17.20;99.90;;;;;;5089795;28;19928;-56
2022/07/08 06:54:36;;;;;;;;;;;17.30;99.90;;;;;;5089054;28;19920;-56
2022/07/08 06:57:04;;;;;;;;;;;17.30;99.90;;;;;;5089585;28;19939;-59
2022/07/08 06:59:31;;;;;;;;;;;17.40;99.90;;;;;;5084571;28;19928;-57
2022/07/08 07:02:19;;;;;;;;;;;17.40;99.90;;;;;;5088547;28;19933;-55
2022/07/08 07:04:46;;;;;;;;;;;17.40;99.90;;;;;;5105903;28;19923;-60
2022/07/08 07:07:14;;;;;;;;;;;17.40;99.90;;;;;;5101611;28;20298;-61
2022/07/08 07:09:47;;;;;;;;;;;17.40;99.90;;;;;;5088718;28;20351;-59
2022/07/08 07:12:15;;;;;;;;;;;17.40;99.90;;;;;;5089178;28;19920;-59
2022/07/08 07:14:42;;;;;;;;;;;17.40;99.90;;;;;;5088270;28;20428;-57
2022/07/08 07:17:10;;;;;;;;;;;17.50;99.90;;;;;;5084711;28;19924;-57
2022/07/08 07:19:38;;;;;;;;;;;17.50;99.90;;;;;;5084914;28;20314;-58
2022/07/08 07:22:05;;;;;;;;;;;17.50;99.90;;;;;;5084632;28;19923;-58
2022/07/08 07:24:34;;;;;;;;;;;17.60;99.90;;;;;;5085223;28;19923;-58
2022/07/08 07:27:02;;;;;;;;;;;17.60;99.90;;;;;;5085241;28;19928;-58
2022/07/08 07:29:30;;;;;;;;;;;17.50;99.90;;;;;;5084097;28;20355;-58
2022/07/08 07:31:57;;;;;;;;;;;17.50;99.90;;;;;;5085236;28;19924;-57
2022/07/08 07:34:25;;;;;;;;;;;17.50;99.90;;;;;;5083423;28;19924;-58
2022/07/08 07:36:52;;;;;;;;;;;17.50;99.90;;;;;;5085499;28;19927;-58
2022/07/08 07:39:25;;;;;;;;;;;17.60;99.90;;;;;;5099538;28;20432;-58
2022/07/08 07:41:52;;;;;;;;;;;17.60;99.90;;;;;;5088947;28;20291;-60
2022/07/08 07:44:20;;;;;;;;;;;17.70;99.90;;;;;;5088340;28;19927;-63
2022/07/08 07:46:47;;;;;;;;;;;17.70;99.90;;;;;;5086585;28;19920;-60
2022/07/08 07:49:15;;;;;;;;;;;17.80;99.90;;;;;;5084939;28;19927;-64
2022/07/08 07:51:42;;;;;;;;;;;17.90;99.90;;;;;;5087126;28;20319;-59
2022/07/08 07:54:09;;;;;;;;;;;18.00;99.90;;;;;;5088533;28;19920;-59
2022/07/08 07:56:37;;;;;;;;;;;18.10;99.90;;;;;;5088377;28;19943;-57
2022/07/08 07:59:05;;;;;;;;;;;18.20;99.90;;;;;;5088340;28;19920;-59
2022/07/08 08:01:32;;;;;;;;;;;18.30;99.90;;;;;;5090185;28;19924;-59
2022/07/08 08:04:00;;;;;;;;;;;18.30;99.90;;;;;;5091683;28;19920;-58
2022/07/08 08:06:28;;;;;;;;;;;18.30;99.90;;;;;;5090809;28;19920;-59
2022/07/08 08:08:57;;;;;;;;;;;18.40;99.90;;;;;;5090628;28;20294;-58
2022/07/08 08:11:25;;;;;;;;;;;18.40;99.90;;;;;;5091755;28;20264;-59
2022/07/08 08:13:52;;;;;;;;;;;18.50;99.90;;;;;;5090278;28;19946;-58
2022/07/08 08:16:20;;;;;;;;;;;18.50;99.90;;;;;;5110367;28;19920;-57
2022/07/08 08:18:48;;;;;;;;;;;18.50;99.90;;;;;;5103550;28;19924;-56
2022/07/08 08:21:15;;;;;;;;;;;18.60;99.90;;;;;;5106976;28;20306;-57
2022/07/08 08:23:43;;;;;;;;;;;18.70;99.90;;;;;;5097340;28;19939;-56
2022/07/08 08:26:10;;;;;;;;;;;18.90;99.90;;;;;;5101679;28;19920;-56
2022/07/08 08:28:38;;;;;;;;;;;19.00;99.90;;;;;;5097160;28;19920;-57
2022/07/08 08:31:05;;;;;;;;;;;19.20;99.90;;;;;;5109205;28;19924;-58
2022/07/08 08:33:33;;;;;;;;;;;19.30;99.90;;;;;;5098717;28;20315;-57
2022/07/08 08:36:00;;;;;;;;;;;19.50;99.90;;;;;;5110157;28;19927;-58
2022/07/08 08:38:28;;;;;;;;;;;19.60;99.90;;;;;;5097732;28;19927;-57
2022/07/08 08:40:59;;;;;;;;;;;19.70;99.90;;;;;;5108662;28;19953;-58
2022/07/08 08:43:27;;;;;;;;;;;19.70;99.90;;;;;;5107980;28;19926;-58
2022/07/08 08:45:54;;;;;;;;;;;19.80;99.90;;;;;;5111885;28;19927;-59
2022/07/08 08:48:23;;;;;;;;;;;20.00;99.90;;;;;;5100965;28;20255;-56
2022/07/08 08:50:56;;;;;;;;;;;20.10;99.90;;;;;;5107820;28;19935;-59
2022/07/08 08:53:25;;;;;;;;;;;20.20;99.90;;;;;;5100132;28;19927;-59
2022/07/08 08:55:55;;;;;;;;;;;20.20;99.90;;;;;;5091697;28;19935;-58
2022/07/08 08:58:22;;;;;;;;;;;20.20;99.90;;;;;;5091081;28;19920;-58
2022/07/08 09:00:50;;;;;;;;;;;20.20;99.90;;;;;;5103278;28;19920;-57
2022/07/08 09:03:18;;;;;;;;;;;20.20;99.90;;;;;;5097486;28;19927;-57
2022/07/08 09:05:47;;;;;;;;;;;20.20;99.90;;;;;;5091045;28;19942;-57
2022/07/08 09:08:15;;;;;;;;;;;20.20;99.90;;;;;;5089612;28;19920;-56
2022/07/08 09:10:42;;;;;;;;;;;20.30;99.90;;;;;;5090542;28;19920;-59
2022/07/08 09:13:11;;;;;;;;;;;20.20;99.90;;;;;;5090226;28;19932;-58
2022/07/08 09:15:40;;;;;;;;;;;20.30;99.90;;;;;;5101177;28;19920;-59
2022/07/08 09:18:09;;;;;;;;;;;20.30;99.90;;;;;;5101695;28;19927;-58
2022/07/08 09:20:56;;;;;;;;;;;20.30;99.90;;;;;;5102740;28;19927;-57
2022/07/08 09:23:27;;;;;;;;;;;20.40;99.90;;;;;;5108846;28;20231;-57
2022/07/08 09:25:56;;;;;;;;;;;20.50;99.90;;;;;;5110063;28;19926;-57
2022/07/08 09:28:27;;;;;;;;;;;20.60;99.90;;;;;;5099921;28;20367;-57
2022/07/08 09:30:56;;;;;;;;;;;20.60;99.90;;;;;;5090342;28;20287;-56
2022/07/08 09:33:25;;;;;;;;;;;20.60;99.90;;;;;;5091070;28;19923;-57
2022/07/08 09:35:54;;;;;;;;;;;20.60;99.90;;;;;;5085640;28;20342;-57
2022/07/08 09:38:23;;;;;;;;;;;20.70;99.90;;;;;;5086775;28;19931;-56
2022/07/08 09:41:09;;;;;;;;;;;20.70;99.90;;;;;;5104257;28;19920;-55
2022/07/08 09:43:44;;;;;;;;;;;20.90;99.90;;;;;;5097830;28;19927;-59
2022/07/08 09:46:12;;;;;;;;;;;21.10;99.90;;;;;;5072042;28;20405;-58
2022/07/08 09:48:39;;;;;;;;;;;21.20;99.90;;;;;;5093453;28;19920;-59
2022/07/08 09:51:10;;;;;;;;;;;21.30;99.90;;;;;;5089973;28;19920;-57
2022/07/08 09:53:39;;;;;;;;;;;21.30;99.90;;;;;;5096106;28;19920;-59
2022/07/08 09:56:07;;;;;;;;;;;21.30;99.90;;;;;;5110385;28;19942;-58
2022/07/08 09:58:36;;;;;;;;;;;21.20;99.90;;;;;;5096978;28;19927;-57
2022/07/08 10:01:04;;;;;;;;;;;21.20;99.90;;;;;;5103525;28;20381;-57
2022/07/08 10:03:32;;;;;;;;;;;21.10;99.90;;;;;;5109694;28;19923;-58
2022/07/08 10:06:02;;;;;;;;;;;21.10;99.90;;;;;;5096194;28;19920;-58
2022/07/08 10:08:29;;;;;;;;;;;21.10;99.90;;;;;;5089645;28;19931;-58
2022/07/08 10:10:57;;;;;;;;;;;21.10;99.90;;;;;;5089913;28;19920;-58
2022/07/08 10:13:26;;;;;;;;;;;21.10;99.90;;;;;;5089741;28;19920;-59
2022/07/08 10:15:56;;;;;;;;;;;21.20;99.90;;;;;;5089842;28;19943;-58
2022/07/08 10:18:31;;;;;;;;;;;21.10;99.90;;;;;;5093988;28;19927;-58
2022/07/08 10:20:59;;;;;;;;;;;21.00;99.90;;;;;;5089455;28;19931;-59
2022/07/08 10:23:28;;;;;;;;;;;21.10;99.90;;;;;;5085380;28;19923;-58
2022/07/08 10:25:57;;;;;;;;;;;21.20;99.90;;;;;;5104641;28;19919;-58
2022/07/08 10:28:35;;;;;;;;;;;21.20;99.90;;;;;;5097913;28;19924;-58
2022/07/08 10:31:02;;;;;;;;;;;21.10;99.90;;;;;;5089502;28;19923;-59
2022/07/08 10:33:30;;;;;;;;;;;21.10;99.90;;;;;;5089267;28;19931;-58
2022/07/08 10:35:59;;;;;;;;;;;21.10;99.90;;;;;;5100808;28;19927;-59
2022/07/08 10:38:36;;;;;;;;;;;21.20;99.90;;;;;;5096858;28;20298;-58
2022/07/08 10:41:08;;;;;;;;;;;21.30;99.90;;;;;;5086305;28;19920;-58
2022/07/08 10:43:36;;;;;;;;;;;21.40;99.90;;;;;;5085355;28;20358;-58
2022/07/08 10:46:05;;;;;;;;;;;21.60;99.90;;;;;;5096546;28;19923;-59
2022/07/08 10:48:43;;;;;;;;;;;21.80;99.90;;;;;;5103568;28;19924;-57
2022/07/08 10:51:19;;;;;;;;;;;22.10;99.90;;;;;;5109064;28;19919;-57
2022/07/08 10:54:07;;;;;;;;;;;22.20;99.90;;;;;;5093359;28;19924;-57
2022/07/08 10:56:50;;;;;;;;;;;22.40;99.90;;;;;;5095341;28;19931;-57
2022/07/08 10:59:18;;;;;;;;;;;22.60;99.90;;;;;;5083743;28;19927;-58
2022/07/08 11:01:52;;;;;;;;;;;22.80;99.90;;;;;;5091962;28;19928;-57
2022/07/08 11:04:31;;;;;;;;;;;22.90;99.90;;;;;;5089316;28;19939;-57
2022/07/08 11:07:14;;;;;;;;;;;22.70;99.90;;;;;;5104343;28;19927;-57
2022/07/08 11:09:43;;;;;;;;;;;22.60;99.90;;;;;;5102317;28;20290;-56
2022/07/08 11:12:14;;;;;;;;;;;22.60;99.90;;;;;;5084747;28;19920;-57
2022/07/08 11:14:45;;;;;;;;;;;22.60;99.90;;;;;;5100641;28;19931;-58
2022/07/08 11:17:16;;;;;;;;;;;22.60;99.90;;;;;;5084724;28;19931;-58
2022/07/08 11:19:44;;;;;;;;;;;22.70;99.90;;;;;;5103859;28;20263;-57
2022/07/08 11:22:12;;;;;;;;;;;22.80;99.90;;;;;;5095321;28;19920;-58
2022/07/08 11:24:52;;;;;;;;;;;22.90;99.90;;;;;;5084085;28;20379;-58
2022/07/08 11:27:26;;;;;;;;;;;22.90;99.90;;;;;;5083516;28;19927;-57
2022/07/08 11:29:55;;;;;;;;;;;22.90;99.90;;;;;;5083365;28;19927;-58
2022/07/08 11:32:23;;;;;;;;;;;22.90;99.90;;;;;;5084002;28;19924;-57
2022/07/08 11:34:51;;;;;;;;;;;23.00;99.90;;;;;;5087090;28;19934;-57
2022/07/08 11:37:18;;;;;;;;;;;23.10;99.90;;;;;;5089450;28;19939;-58
2022/07/08 11:39:46;;;;;;;;;;;23.20;99.40;;;;;;5088414;27;20373;-58
2022/07/08 11:45:33;;;;;;;;;;;23.40;99.70;;;;;;5106349;28;19920;-57
2022/07/08 11:48:04;;;;;;;;;;;23.80;99.50;;;;;;5109215;28;19919;-58
2022/07/08 11:50:31;;;;;;;;;;;24.00;99.20;;;;;;5110099;28;19920;-57
2022/07/08 11:52:59;;;;;;;;;;;24.20;98.10;;;;;;5107519;28;19926;-57
2022/07/08 11:55:26;;;;;;;;;;;24.30;97.60;;;;;;5089313;28;19920;-56
2022/07/08 11:57:59;;;;;;;;;;;24.20;97.20;;;;;;5089153;28;19924;-57
2022/07/08 12:00:26;;;;;;;;;;;24.20;97.50;;;;;;5088902;28;19928;-57
2022/07/08 12:02:54;;;;;;;;;;;24.40;97.70;;;;;;5070893;28;19923;-57
2022/07/08 12:05:22;;;;;;;;;;;24.60;97.40;;;;;;5088813;28;19924;-56
2022/07/08 12:07:49;;;;;;;;;;;24.70;96.10;;;;;;5092245;28;20649;-56
2022/07/08 12:10:21;;;;;;;;;;;24.90;96.40;;;;;;5095596;28;19923;-56
2022/07/08 12:12:55;;;;;;;;;;;24.90;96.30;;;;;;5095133;28;20412;-55
2022/07/08 12:15:22;;;;;;;;;;;25.10;96.80;;;;;;5089280;28;19927;-58
2022/07/08 12:17:57;;;;;;;;;;;25.30;95.30;;;;;;5088482;28;20280;-58
2022/07/08 12:20:31;;;;;;;;;;;25.50;95.50;;;;;;5087528;28;19924;-58
2022/07/08 12:22:59;;;;;;;;;;;25.90;95.10;;;;;;5090860;28;19924;-57
2022/07/08 12:25:26;;;;;;;;;;;26.00;93.70;;;;;;5086798;28;19920;-58
2022/07/08 12:27:58;;;;;;;;;;;26.20;94.50;;;;;;5088265;28;19920;-57
2022/07/08 12:30:27;;;;;;;;;;;26.50;93.00;;;;;;5093352;28;19920;-58
2022/07/08 12:33:02;;;;;;;;;;;26.70;93.30;;;;;;5102630;28;19931;-58
2022/07/08 12:35:46;;;;;;;;;;;26.90;92.90;;;;;;5107676;28;19927;-58
2022/07/08 12:38:14;;;;;;;;;;;27.30;91.90;;;;;;5099137;28;19923;-58
2022/07/08 12:40:42;;;;;;;;;;;27.40;91.90;;;;;;5106571;28;19924;-58
2022/07/08 12:43:10;;;;;;;;;;;27.60;90.10;;;;;;5101390;28;19923;-58
2022/07/08 12:45:38;;;;;;;;;;;27.50;90.10;;;;;;5087347;28;19943;-58
2022/07/08 12:48:06;;;;;;;;;;;27.40;90.00;;;;;;5098782;28;20371;-58
2022/07/08 12:50:34;;;;;;;;;;;27.50;90.10;;;;;;5105687;28;19923;-58
2022/07/08 12:53:02;;;;;;;;;;;27.60;90.10;;;;;;5102120;28;19920;-58
2022/07/08 12:55:30;;;;;;;;;;;27.70;89.30;;;;;;5095852;28;19930;-58
2022/07/08 12:57:58;;;;;;;;;;;27.70;87.60;;;;;;5101048;28;19930;-58
2022/07/08 13:00:25;;;;;;;;;;;27.80;87.00;;;;;;5098830;28;20374;-58
2022/07/08 13:02:52;;;;;;;;;;;28.00;86.80;;;;;;5122939;27;19924;-58
2022/07/08 13:05:20;;;;;;;;;;;28.20;87.00;;;;;;5106464;28;19923;-58
2022/07/08 13:07:48;;;;;;;;;;;28.20;85.00;;;;;;5103749;28;19924;-57
2022/07/08 13:10:15;;;;;;;;;;;28.30;85.80;;;;;;5093113;28;19950;-58
2022/07/08 13:12:42;;;;;;;;;;;28.40;86.20;;;;;;5087328;28;19924;-57
2022/07/08 13:15:10;;;;;;;;;;;28.60;84.20;;;;;;5088949;28;19927;-58
2022/07/08 13:17:40;;;;;;;;;;;28.80;85.30;;;;;;5094244;28;19924;-58
2022/07/08 13:20:09;;;;;;;;;;;28.90;84.10;;;;;;5088646;28;19920;-58
2022/07/08 13:22:36;;;;;;;;;;;29.10;84.80;;;;;;5106649;28;19927;-59
2022/07/08 13:25:04;;;;;;;;;;;29.20;85.40;;;;;;5099964;28;20286;-57
2022/07/08 13:27:32;;;;;;;;;;;29.30;82.90;;;;;;5104456;28;19931;-58
2022/07/08 13:29:59;;;;;;;;;;;29.40;83.30;;;;;;5097993;28;19923;-58
2022/07/08 13:32:27;;;;;;;;;;;29.30;81.50;;;;;;5103941;28;19924;-62
2022/07/08 13:34:54;;;;;;;;;;;29.30;83.40;;;;;;5106960;28;19924;-57
2022/07/08 13:37:34;;;;;;;;;;;29.30;82.10;;;;;;5102867;28;19919;-58
2022/07/08 13:40:02;;;;;;;;;;;29.30;81.00;;;;;;5107570;28;19920;-58
2022/07/08 13:42:30;;;;;;;;;;;29.20;81.00;;;;;;5107995;28;19927;-58
2022/07/08 13:44:57;;;;;;;;;;;29.00;81.70;;;;;;5104565;28;19924;-58
2022/07/08 13:47:25;;;;;;;;;;;28.80;81.00;;;;;;5110426;28;19920;-58
2022/07/08 13:49:52;;;;;;;;;;;28.70;81.40;;;;;;5096010;28;19920;-58
2022/07/08 13:52:20;;;;;;;;;;;28.70;82.00;;;;;;5110691;28;19919;-57
2022/07/08 13:55:00;;;;;;;;;;;28.60;82.10;;;;;;5096668;28;20390;-58
2022/07/08 13:57:27;;;;;;;;;;;28.70;81.30;;;;;;5105731;28;19927;-58
2022/07/08 13:59:55;;;;;;;;;;;28.60;81.70;;;;;;5096323;28;19926;-58
2022/07/08 14:02:22;;;;;;;;;;;28.60;82.50;;;;;;5108585;28;19927;-57
2022/07/08 14:04:50;;;;;;;;;;;28.60;82.20;;;;;;5110047;28;19934;-58
2022/07/08 14:10:13;;;;;;;;;;;28.60;81.50;;;;;;5084940;28;19920;-58
2022/07/08 14:12:40;;;;;;;;;;;28.70;82.50;;;;;;5095714;28;20362;-58
2022/07/08 14:15:08;;;;;;;;;;;29.10;81.90;;;;;;5086147;28;19923;-57
2022/07/08 14:17:43;;;;;;;;;;;29.30;80.80;;;;;;5089150;28;20399;-58
2022/07/08 14:20:11;;;;;;;;;;;29.40;80.80;;;;;;5095632;28;19927;-58
2022/07/08 14:22:38;;;;;;;;;;;29.60;81.00;;;;;;5108495;28;19951;-58
2022/07/08 14:25:06;;;;;;;;;;;29.70;80.50;;;;;;5100682;28;19930;-58
2022/07/08 14:27:33;;;;;;;;;;;29.80;79.30;;;;;;5089191;28;19927;-58
2022/07/08 14:30:01;;;;;;;;;;;29.70;78.20;;;;;;5098442;28;19920;-57
2022/07/08 14:32:29;;;;;;;;;;;29.60;78.80;;;;;;5105140;28;19931;-57